New Richmond Regional Airport
KRNH : now visible

Airfield :











YOU CAN JOIN US ON...

 
LOGIN :

Register | Disclaimer

   EN    FR    IT 

 









Legend :    VFR   Marginal VFR   IFR   Intensive IFR   Very Intensive IFR
Visi :
Ceiling :
>= 8 km
>= 3000ft
5 to 8 km
1000 to 3000 ft
1500m to 5 km
500 to 1000 ft
800 to 1500m
200 to 500 ft
< 800m
< 200 ft
Symbols :   Thunderstorms  Fog  Heavy snow  Heavy precipitations  Wind > 20 kt






- Airport Elevation : 998 ft


KRNH - New Richmond Regional

CURRENT METAR :
  • 221635Z AUTO 28016G24KT 10SM BKN016 OVC022 05/03 A2941 RMK AO2 P0001 T00450026

EXPIRED METARs :
  • 221615Z AUTO 28014G22KT 10SM -DZ BKN016 OVC022 04/03 A2941 RMK AO2 T00440029
  • 221555Z AUTO 28016G24KT 10SM -DZ BKN015 OVC022 04/03 A2940 RMK AO2 P0001 T00440028
  • 221535Z AUTO 28016G25KT 10SM -DZ SCT013 OVC019 04/03 A2939 RMK AO2 P0001 T00420027
  • 221515Z AUTO 28016G27KT 7SM RA OVC016 04/03 A2938 RMK AO2 P0001 T00420027
  • 221455Z AUTO 29015G27KT 10SM -RA OVC016 04/03 A2937 RMK AO2 P0003 60009 T00420028
  • 221435Z AUTO 28017G23KT 10SM RA BKN014 OVC019 04/03 A2937 RMK AO2 P0002 T00430029
  • 221415Z AUTO 28018G23KT 10SM RA OVC016 04/03 A2935 RMK AO2 P0001 T00440030
  • 221355Z AUTO 28018G27KT 10SM -RA OVC016 04/03 A2934 RMK AO2 P0003 T00430030

TAF KRNH
Valid from the 22 at 12:00 until the 23 at 12:00 UTC


221126Z 2212/2312 29011KT 6SM -RA BKN009 OVC015
FM221400 28020G35KT P6SM VCSH OVC012
FM222300 28020G31KT P6SM OVC015
FM230300 28014G25KT P6SM BKN022
FM230500 28013G22KT P6SM BKN035
FM230800 27009KT P6SM BKN070



MET'MAP, your aeronautical weather chart ! - Copyright ORBIFLY December 2007 - Disclaimer

ORBIFLY MET'MAP TEAM :

Programming & Development : Alexandra Zaïnal
Concept & Development : Baudouin d'Aumeries
Co-Development & Prog : Marc-Olivier Méhu
Technical & hardware support : Manuel Goepfert

Contact : metmap@orbifly.com




SOURCES & CREDITS :

   NOAA       Earth
Advisory